createdAt,value
2023-04-03T00:02:37.261Z,8.40
2023-04-03T00:07:00.540Z,7.90
2023-04-03T00:15:18.992Z,10.20
2023-04-03T00:19:54.439Z,9.60
2023-04-03T00:24:08.539Z,10.00
2023-04-03T00:28:29.612Z,10.90
2023-04-03T00:33:10.162Z,12.70
2023-04-03T00:37:25.483Z,9.90
2023-04-03T00:41:50.391Z,12.40
2023-04-03T00:46:12.745Z,12.90
2023-04-03T00:50:34.775Z,10.20
2023-04-03T00:54:58.599Z,11.70
2023-04-03T00:59:13.789Z,12.40
2023-04-03T01:03:41.379Z,11.40
2023-04-03T01:08:17.105Z,11.00
2023-04-03T01:12:28.471Z,12.00
2023-04-03T01:16:56.889Z,8.80
2023-04-03T01:21:25.996Z,9.40
2023-04-03T01:25:52.131Z,10.60
2023-04-03T01:30:00.730Z,9.80
2023-04-03T01:34:09.552Z,10.90
2023-04-03T01:38:23.810Z,10.10
2023-04-03T01:42:57.761Z,9.10
2023-04-03T01:47:21.800Z,9.90
2023-04-03T01:51:49.824Z,8.20
2023-04-03T01:56:23.410Z,8.90
2023-04-03T02:00:34.617Z,10.70
2023-04-03T02:05:05.931Z,10.60
2023-04-03T02:13:12.507Z,17.00
2023-04-03T02:17:18.097Z,12.30
2023-04-03T02:21:46.150Z,16.40
2023-04-03T02:25:59.061Z,13.70
2023-04-03T02:30:22.697Z,18.20
2023-04-03T02:36:54.411Z,20.20
2023-04-03T02:40:58.470Z,18.40
2023-04-03T02:44:59.392Z,16.20
2023-04-03T02:49:19.905Z,17.80
2023-04-03T02:53:25.851Z,20.50
2023-04-03T02:57:35.469Z,21.30
2023-04-03T03:01:41.888Z,20.60
2023-04-03T03:05:45.186Z,20.30
2023-04-03T03:09:47.586Z,20.50
2023-04-03T03:13:46.860Z,21.90
2023-04-03T03:17:57.894Z,22.20
2023-04-03T03:22:00.541Z,20.50
2023-04-03T03:26:13.325Z,20.00
2023-04-03T03:30:17.761Z,19.20
2023-04-03T03:34:37.229Z,24.40
2023-04-03T03:42:32.306Z,18.30
2023-04-03T03:46:56.741Z,16.50
2023-04-03T03:51:00.013Z,12.90
2023-04-03T03:55:02.913Z,12.70
2023-04-03T03:59:07.428Z,9.80
2023-04-03T04:02:40.932Z,8.10
2023-04-03T04:06:51.868Z,9.10
2023-04-03T04:10:49.607Z,8.80
2023-04-03T04:14:56.507Z,9.60
2023-04-03T04:19:01.410Z,7.80
2023-04-03T04:22:49.109Z,7.10
2023-04-03T04:26:52.779Z,8.50
2023-04-03T04:30:58.679Z,7.30
2023-04-03T04:35:01.209Z,9.40
2023-04-03T04:39:02.571Z,10.40
2023-04-03T04:43:14.160Z,13.20
2023-04-03T04:47:25.377Z,15.30
2023-04-03T04:51:35.188Z,14.90
2023-04-03T04:55:38.946Z,16.10
2023-04-03T04:59:40.668Z,18.70
2023-04-03T05:03:36.609Z,15.20
2023-04-03T05:07:39.126Z,15.10
2023-04-03T05:11:45.414Z,13.80
2023-04-03T05:15:51.916Z,16.90
2023-04-03T05:19:54.725Z,15.90
2023-04-03T05:24:01.572Z,16.00
2023-04-03T05:28:19.459Z,17.50
2023-04-03T05:32:26.986Z,12.90
2023-04-03T05:36:34.008Z,14.20
2023-04-03T05:40:38.171Z,9.10
2023-04-03T05:44:43.514Z,16.10
2023-04-03T05:48:48.777Z,11.40
2023-04-03T05:53:23.093Z,10.70
2023-04-03T05:57:29.194Z,13.50
2023-04-03T06:01:42.711Z,13.00
2023-04-03T06:05:49.552Z,11.50
2023-04-03T06:09:53.281Z,14.90
2023-04-03T06:14:08.751Z,15.40
2023-04-03T06:18:12.197Z,12.90
2023-04-03T06:22:33.348Z,11.20
2023-04-03T06:26:53.487Z,11.60
2023-04-03T06:30:45.672Z,13.50
2023-04-03T06:34:49.605Z,13.30
2023-04-03T06:39:00.543Z,13.20
2023-04-03T06:43:04.160Z,13.30
2023-04-03T06:47:09.224Z,11.90
2023-04-03T06:51:12.148Z,14.20
2023-04-03T06:55:21.582Z,12.40
2023-04-03T06:59:36.406Z,13.10
2023-04-03T07:03:59.443Z,12.20
2023-04-03T07:08:03.821Z,11.80
2023-04-03T07:12:08.464Z,12.80
2023-04-03T07:16:12.087Z,16.40
2023-04-03T07:20:41.886Z,11.40
2023-04-03T07:24:46.226Z,11.30
2023-04-03T07:28:50.304Z,10.90
2023-04-03T07:33:14.477Z,8.50
2023-04-03T07:37:21.301Z,10.20
2023-04-03T07:41:28.648Z,10.70
2023-04-03T07:45:36.033Z,9.30
2023-04-03T07:53:23.897Z,5.50
2023-04-03T07:57:30.051Z,7.30
2023-04-03T08:00:47.198Z,7.00
2023-04-03T08:04:58.282Z,7.90
2023-04-03T08:09:03.020Z,8.90
2023-04-03T08:12:59.784Z,8.60
2023-04-03T08:17:09.735Z,9.60
2023-04-03T08:21:12.491Z,7.90
2023-04-03T08:25:15.224Z,7.70
2023-04-03T08:29:14.020Z,9.30
2023-04-03T08:33:09.402Z,9.20
2023-04-03T08:37:17.973Z,10.60
2023-04-03T08:41:19.843Z,10.20
2023-04-03T08:45:08.093Z,9.10
2023-04-03T08:49:20.930Z,5.80
2023-04-03T08:53:23.884Z,7.40
2023-04-03T08:57:22.016Z,9.90
2023-04-03T09:01:41.115Z,9.30
2023-04-03T09:05:45.306Z,7.70
2023-04-03T09:09:53.766Z,8.30
2023-04-03T09:14:01.994Z,6.80
2023-04-03T09:18:16.290Z,5.90
2023-04-03T09:22:14.972Z,4.90
2023-04-03T09:26:18.060Z,6.00
2023-04-03T09:30:20.718Z,4.40
2023-04-03T09:34:23.161Z,5.10
2023-04-03T09:38:22.581Z,6.90
2023-04-03T09:42:36.638Z,4.40
2023-04-03T09:46:57.176Z,4.40
2023-04-03T09:51:09.149Z,4.30
2023-04-03T09:59:14.021Z,5.30
2023-04-03T10:03:09.076Z,3.30
2023-04-03T10:07:13.152Z,4.40
2023-04-03T10:11:12.259Z,3.20
2023-04-03T10:15:19.260Z,3.60
2023-04-03T10:19:46.463Z,6.50
2023-04-03T10:23:53.622Z,26.50
2023-04-03T10:28:14.593Z,3.70
2023-04-03T10:32:40.326Z,3.30
2023-04-03T10:36:49.719Z,4.10
2023-04-03T10:41:00.134Z,4.70
2023-04-03T10:45:13.108Z,5.20
2023-04-03T10:49:34.064Z,3.30
2023-04-03T10:53:41.099Z,3.90
2023-04-03T10:58:04.080Z,4.80
2023-04-03T11:02:09.550Z,5.00
2023-04-03T11:06:30.736Z,5.20
2023-04-03T11:10:37.659Z,5.10
2023-04-03T11:15:01.705Z,5.20
2023-04-03T11:19:03.945Z,3.30
2023-04-03T11:23:06.165Z,5.60
2023-04-03T11:27:07.826Z,4.10
2023-04-03T11:31:14.364Z,6.80
2023-04-03T11:35:25.005Z,4.50
2023-04-03T11:39:31.921Z,4.30
2023-04-03T11:43:41.268Z,4.30
2023-04-03T11:47:54.942Z,6.10
2023-04-03T11:52:00.229Z,3.30
2023-04-03T11:56:13.457Z,4.60
2023-04-03T12:00:19.825Z,4.30
2023-04-03T12:04:25.533Z,5.90
2023-04-03T12:08:32.120Z,12.80
2023-04-03T12:13:06.193Z,6.50
2023-04-03T12:17:11.766Z,5.40
2023-04-03T12:21:32.201Z,4.00
2023-04-03T12:25:35.975Z,5.70
2023-04-03T12:29:42.182Z,3.90
2023-04-03T12:34:05.794Z,5.60
2023-04-03T12:38:16.189Z,3.60
2023-04-03T12:42:25.145Z,4.80
2023-04-03T12:46:37.018Z,4.20
2023-04-03T12:51:06.242Z,2.60
2023-04-03T12:55:28.870Z,5.80
2023-04-03T12:59:39.531Z,5.00
2023-04-03T13:03:58.846Z,3.10
2023-04-03T13:08:21.982Z,3.40
2023-04-03T13:16:09.610Z,3.20
2023-04-03T13:20:40.187Z,4.50
2023-04-03T13:24:45.413Z,4.00
2023-04-03T13:29:08.311Z,3.80
2023-04-03T13:33:18.847Z,4.30
2023-04-03T13:37:25.463Z,5.00
2023-04-03T13:41:31.130Z,4.60
2023-04-03T13:46:10.883Z,3.50
2023-04-03T13:50:45.501Z,4.80
2023-04-03T13:55:07.872Z,8.40
2023-04-03T13:59:13.667Z,5.20
2023-04-03T14:03:20.936Z,9.30
2023-04-03T14:07:43.538Z,5.60
2023-04-03T14:12:05.332Z,5.00
2023-04-03T14:16:16.182Z,4.50
2023-04-03T14:20:24.340Z,4.00
2023-04-03T14:24:30.472Z,3.50
2023-04-03T14:28:39.966Z,3.50
2023-04-03T14:33:03.858Z,5.00
2023-04-03T14:37:16.046Z,4.60
2023-04-03T14:41:27.065Z,6.40
2023-04-03T14:45:50.469Z,5.40
2023-04-03T14:50:14.949Z,4.60
2023-04-03T14:54:17.673Z,5.90
2023-04-03T14:58:38.719Z,5.90
2023-04-03T15:02:42.395Z,3.60
2023-04-03T15:07:08.442Z,5.50
2023-04-03T15:11:15.953Z,13.40
2023-04-03T15:15:27.030Z,7.80
2023-04-03T15:19:49.689Z,5.90
2023-04-03T15:24:04.653Z,6.90
2023-04-03T15:28:25.933Z,3.70
2023-04-03T15:32:31.313Z,8.00
2023-04-03T15:36:39.226Z,9.80
2023-04-03T15:40:58.872Z,5.80
2023-04-03T15:45:25.760Z,6.10
2023-04-03T15:49:56.141Z,5.30
2023-04-03T15:54:18.883Z,5.60
2023-04-03T15:58:42.416Z,5.10
2023-04-03T16:03:01.827Z,11.10
2023-04-03T16:07:44.403Z,5.40
2023-04-03T16:11:53.078Z,5.00
2023-04-03T16:16:15.774Z,6.20
2023-04-03T16:20:37.559Z,4.00
2023-04-03T16:24:43.512Z,5.70
2023-04-03T16:29:16.009Z,22.10
2023-04-03T16:37:38.569Z,4.70
2023-04-03T16:42:08.851Z,9.60
2023-04-03T16:46:27.649Z,9.60
2023-04-03T16:50:50.810Z,9.30
2023-04-03T16:59:24.823Z,4.60
2023-04-03T17:03:43.756Z,5.50
2023-04-03T17:08:03.806Z,8.40
2023-04-03T17:16:35.004Z,5.40
2023-04-03T17:20:50.280Z,7.60
2023-04-03T17:25:04.694Z,6.20
2023-04-03T17:29:10.652Z,5.90
2023-04-03T17:33:41.486Z,6.90
2023-04-03T17:38:05.813Z,9.20
2023-04-03T17:42:09.677Z,6.90
2023-04-03T17:46:28.489Z,9.30
2023-04-03T17:50:31.968Z,8.20
2023-04-03T17:54:55.483Z,10.00
2023-04-03T17:59:16.853Z,10.60
2023-04-03T18:04:00.649Z,8.30
2023-04-03T18:08:24.659Z,7.60
2023-04-03T18:12:28.681Z,7.50
2023-04-03T18:16:36.581Z,6.80
2023-04-03T18:20:43.739Z,8.10
2023-04-03T18:25:07.576Z,6.10
2023-04-03T18:29:30.902Z,7.80
2023-04-03T18:37:23.634Z,8.20
2023-04-03T18:41:55.021Z,8.30
2023-04-03T18:46:07.436Z,7.40
2023-04-03T18:50:46.472Z,7.60
2023-04-03T18:55:19.815Z,5.90
2023-04-03T18:59:51.583Z,12.80
2023-04-03T19:04:11.275Z,7.00
2023-04-03T19:08:15.455Z,5.50
2023-04-03T19:12:47.495Z,5.00
2023-04-03T19:17:02.409Z,5.90
2023-04-03T19:21:37.053Z,7.20
2023-04-03T19:26:01.453Z,4.80
2023-04-03T19:30:19.705Z,6.20
2023-04-03T19:34:38.881Z,7.10
2023-04-03T19:39:06.015Z,6.80
2023-04-03T19:43:30.751Z,7.50
2023-04-03T19:48:15.415Z,4.40
2023-04-03T19:52:42.249Z,8.30
2023-04-03T19:57:10.317Z,8.70
2023-04-03T20:01:54.056Z,7.50
2023-04-03T20:06:05.053Z,8.40
2023-04-03T20:10:32.075Z,8.50
2023-04-03T20:19:09.611Z,5.60
2023-04-03T20:23:33.448Z,6.60
2023-04-03T20:27:54.709Z,8.60
2023-04-03T20:32:21.832Z,10.60
2023-04-03T20:36:30.724Z,8.70
2023-04-03T20:40:37.035Z,9.00
2023-04-03T20:45:03.504Z,9.60
2023-04-03T20:49:31.420Z,11.40
2023-04-03T20:53:59.763Z,11.10
2023-04-03T20:58:09.752Z,12.00
2023-04-03T21:02:41.828Z,7.40
2023-04-03T21:07:25.105Z,11.50
2023-04-03T21:12:06.939Z,10.10
2023-04-03T21:16:33.052Z,9.60
2023-04-03T21:21:04.419Z,10.90
2023-04-03T21:29:41.921Z,9.90
2023-04-03T21:34:02.914Z,9.50
2023-04-03T21:38:25.505Z,8.40
2023-04-03T21:42:33.904Z,12.00
2023-04-03T21:46:59.879Z,10.00
2023-04-03T21:51:45.363Z,9.40
2023-04-03T21:56:11.043Z,12.00
2023-04-03T22:00:43.244Z,9.10
2023-04-03T22:04:50.200Z,10.50
2023-04-03T22:09:35.053Z,10.70
2023-04-03T22:14:03.023Z,14.50
2023-04-03T22:18:31.008Z,10.30
2023-04-03T22:22:45.536Z,11.90
2023-04-03T22:27:13.131Z,9.90
2023-04-03T22:31:25.904Z,9.90
2023-04-03T22:36:09.696Z,10.50
2023-04-03T22:40:20.668Z,13.10
2023-04-03T22:44:44.641Z,12.50
2023-04-03T22:48:49.062Z,13.00
2023-04-03T22:53:28.682Z,10.40
2023-04-03T22:58:00.775Z,13.40
2023-04-03T23:02:25.141Z,11.70
2023-04-03T23:06:52.844Z,14.20
2023-04-03T23:11:28.969Z,13.00
2023-04-03T23:15:57.238Z,12.90
2023-04-03T23:20:18.380Z,14.70
2023-04-03T23:24:25.201Z,12.10
2023-04-03T23:28:51.301Z,17.80
2023-04-03T23:33:11.817Z,14.90
2023-04-03T23:37:40.761Z,14.10
2023-04-03T23:42:01.261Z,14.70
2023-04-03T23:50:24.463Z,9.90
2023-04-03T23:54:46.306Z,12.20
2023-04-03T23:59:17.957Z,11.00
